Time;durP1;ratioP1;P1;durP2;ratioP2;P2;SDS_P1;SDS_P2;PMS_P1;PMS_P2;Temp;Humidity;BMP_temperature;BMP_pressure;BME280_temperature;BME280_humidity;BME280_pressure;Samples;Min_cycle;Max_cycle;Signal;HPM_P1;HPM_P2
2022/01/15 00:00:36;;;;;;;;;82.75;59.75;;;;;2.82;68.58;102283.44;5082662;27;47662;-61
2022/01/15 00:03:05;;;;;;;;;80.50;61.75;;;;;2.81;68.56;102271.34;5079404;27;45581;-62
2022/01/15 00:05:31;;;;;;;;;80.25;60.25;;;;;2.81;68.92;102272.19;5078944;27;45340;-61
2022/01/15 00:07:57;;;;;;;;;85.25;61.00;;;;;2.80;68.59;102265.28;5065309;27;45491;-62
2022/01/15 00:10:26;;;;;;;;;81.75;60.75;;;;;2.78;68.68;102269.69;5096909;27;45672;-61
2022/01/15 00:12:55;;;;;;;;;87.50;62.00;;;;;2.78;68.53;102261.06;5096942;27;45418;-60
2022/01/15 00:15:29;;;;;;;;;84.75;61.25;;;;;2.76;69.05;102253.28;5079004;27;45520;-61
2022/01/15 00:20:23;;;;;;;;;85.75;62.50;;;;;2.77;69.06;102255.00;5100670;27;46047;-61
2022/01/15 00:22:50;;;;;;;;;87.50;64.50;;;;;2.76;68.99;102250.69;5099299;27;68965;-61
2022/01/15 00:25:16;;;;;;;;;87.50;64.00;;;;;2.76;68.86;102247.25;5118502;27;45628;-62
2022/01/15 00:27:41;;;;;;;;;88.50;65.00;;;;;2.75;68.42;102256.78;5099888;27;45571;-61
2022/01/15 00:30:07;;;;;;;;;93.25;66.75;;;;;2.76;68.56;102255.03;5099848;27;45475;-60
2022/01/15 00:32:33;;;;;;;;;95.75;73.50;;;;;2.74;68.67;102249.06;5118407;27;45378;-60
2022/01/15 00:35:00;;;;;;;;;84.50;64.75;;;;;2.73;68.81;102252.53;5099998;27;45839;-60
2022/01/15 00:37:26;;;;;;;;;89.25;65.00;;;;;2.72;68.62;102240.44;5118401;27;45604;-60
2022/01/15 00:39:51;;;;;;;;;89.25;67.00;;;;;2.72;68.90;102245.66;5118327;27;47184;-61
2022/01/15 00:42:18;;;;;;;;;88.25;65.00;;;;;2.71;68.84;102236.16;5117403;27;66362;-61
2022/01/15 00:44:48;;;;;;;;;87.75;66.75;;;;;2.71;68.91;102234.41;5099618;27;45458;-61
2022/01/15 00:47:14;;;;;;;;;92.00;69.50;;;;;2.72;68.71;102230.06;5118207;27;45365;-61
2022/01/15 00:49:39;;;;;;;;;92.25;70.75;;;;;2.72;68.83;102227.47;5098706;27;67433;-61
2022/01/15 00:52:05;;;;;;;;;93.75;70.50;;;;;2.72;69.05;102224.88;5117007;27;71865;-61
2022/01/15 00:54:30;;;;;;;;;94.50;69.50;;;;;2.71;68.99;102229.19;5118284;27;45325;-61
2022/01/15 00:56:55;;;;;;;;;92.50;68.50;;;;;2.69;69.09;102220.59;5117284;27;63953;-61
2022/01/15 00:59:21;;;;;;;;;90.00;66.00;;;;;2.69;69.37;102215.41;5117944;27;46195;-61
2022/01/15 01:01:46;;;;;;;;;90.00;69.00;;;;;2.68;69.18;102213.72;5117307;27;62481;-60
2022/01/15 01:04:11;;;;;;;;;92.00;69.00;;;;;2.67;69.29;102215.47;5117286;27;66405;-61
2022/01/15 01:06:37;;;;;;;;;90.50;65.75;;;;;2.67;69.19;102218.06;5116966;27;65041;-61
2022/01/15 01:09:02;;;;;;;;;90.25;65.00;;;;;2.67;69.16;102214.59;5116899;27;65917;-62
2022/01/15 01:11:43;;;;;;;;;89.50;67.75;;;;;2.66;69.19;102216.38;5098714;27;62410;-60
2022/01/15 01:24:40;;;;;;;;;81.50;61.00;;;;;2.65;69.42;102219.84;5101219;27;45385;-60
2022/01/15 01:27:12;;;;;;;;;84.50;64.50;;;;;2.64;69.44;102206.94;5117776;27;45342;-63
2022/01/15 01:34:47;;;;;;;;;93.75;67.75;;;;;2.61;69.07;102201.84;5117796;27;45402;-61
2022/01/15 01:37:20;;;;;;;;;93.25;68.75;;;;;2.57;68.85;102198.44;5116999;27;56845;-61
2022/01/15 01:39:50;;;;;;;;;90.00;67.00;;;;;2.57;68.62;102203.66;5098859;27;47375;-61
2022/01/15 01:45:08;;;;;;;;;87.25;65.50;;;;;2.56;69.11;102191.56;5117525;27;45400;-60
2022/01/15 01:47:43;;;;;;;;;90.50;66.50;;;;;2.59;69.20;102182.84;5117448;27;45489;-61
2022/01/15 01:50:20;;;;;;;;;84.50;62.00;;;;;2.58;69.03;102178.56;5117207;27;46205;-63
2022/01/15 01:52:47;;;;;;;;;84.25;64.25;;;;;2.60;69.11;102184.56;5100058;27;45536;-61
2022/01/15 01:55:12;;;;;;;;;90.00;64.50;;;;;2.58;68.81;102181.16;5117356;27;45405;-61
2022/01/15 01:57:38;;;;;;;;;86.75;64.25;;;;;2.53;68.60;102183.84;5119967;27;45327;-61
2022/01/15 02:00:06;;;;;;;;;86.25;63.75;;;;;2.52;68.79;102180.44;5085030;27;51983;-61
2022/01/15 02:02:31;;;;;;;;;82.50;61.75;;;;;2.52;68.82;102183.03;5120850;27;45344;-62
2022/01/15 02:04:58;;;;;;;;;81.00;60.75;;;;;2.54;68.81;102179.53;5120187;27;63224;-61
2022/01/15 02:07:25;;;;;;;;;76.75;57.00;;;;;2.52;68.91;102183.03;5120847;27;45320;-60
2022/01/15 02:09:51;;;;;;;;;77.25;59.00;;;;;2.52;68.59;102180.44;5102166;27;47225;-61
2022/01/15 02:12:16;;;;;;;;;75.25;58.75;;;;;2.52;68.59;102175.25;5102361;27;45273;-61
2022/01/15 02:14:42;;;;;;;;;73.00;55.50;;;;;2.51;68.59;102170.06;5120032;27;66650;-62
2022/01/15 02:17:07;;;;;;;;;81.75;60.75;;;;;2.50;68.48;102169.25;5120134;27;61884;-63
2022/01/15 02:19:33;;;;;;;;;78.25;59.50;;;;;2.51;68.51;102170.06;5120587;27;45682;-60
2022/01/15 02:24:43;;;;;;;;;77.00;56.50;;;;;2.47;68.58;102158.94;5105225;27;45409;-60
2022/01/15 02:27:08;;;;;;;;;72.50;55.50;;;;;2.46;68.63;102157.25;5119973;27;62889;-61
2022/01/15 02:29:33;;;;;;;;;80.75;58.50;;;;;2.42;68.47;102153.03;5100540;27;73821;-62
2022/01/15 02:31:59;;;;;;;;;72.25;57.25;;;;;2.41;68.21;102146.16;5119671;27;64415;-61
2022/01/15 02:34:25;;;;;;;;;79.00;58.25;;;;;2.42;68.23;102149.56;5101204;27;65899;-61
2022/01/15 02:36:50;;;;;;;;;72.50;56.50;;;;;2.40;68.39;102152.22;5120491;27;45424;-61
2022/01/15 02:39:15;;;;;;;;;70.75;52.00;;;;;2.38;68.52;102156.59;5119165;27;75772;-62
2022/01/15 02:41:41;;;;;;;;;66.25;52.00;;;;;2.35;68.41;102159.28;5101429;27;57267;-61
2022/01/15 02:44:16;;;;;;;;;72.75;53.25;;;;;2.34;68.25;102158.44;5120280;27;45336;-61
2022/01/15 02:49:13;;;;;;;;;75.25;53.75;;;;;2.32;68.74;102155.03;5119926;27;46173;-62
2022/01/15 02:51:39;;;;;;;;;72.25;55.50;;;;;2.32;68.74;102154.19;5100939;27;62704;-62
2022/01/15 02:54:04;;;;;;;;;80.75;60.25;;;;;2.29;68.72;102143.88;5119264;27;66330;-61
2022/01/15 02:56:36;;;;;;;;;81.50;60.00;;;;;2.28;68.61;102144.78;5120146;27;45338;-60
2022/01/15 02:59:03;;;;;;;;;76.00;57.25;;;;;2.25;68.90;102137.09;5119873;27;46357;-63
2022/01/15 03:01:28;;;;;;;;;77.00;58.00;;;;;2.23;68.66;102137.97;5101526;27;45642;-63
2022/01/15 03:03:54;;;;;;;;;75.00;57.75;;;;;2.22;69.13;102138.88;5120042;27;45230;-61
2022/01/15 03:06:20;;;;;;;;;74.75;58.00;;;;;2.21;68.81;102142.34;5119136;27;65361;-60
2022/01/15 03:08:46;;;;;;;;;79.75;56.75;;;;;2.20;68.78;102143.25;5083823;27;45438;-62
2022/01/15 03:11:11;;;;;;;;;79.00;56.25;;;;;2.21;68.74;102136.31;5119749;27;45303;-60
2022/01/15 03:13:37;;;;;;;;;83.00;58.50;;;;;2.18;68.94;102132.06;5101455;27;45412;-62
2022/01/15 03:16:03;;;;;;;;;80.25;58.00;;;;;2.19;68.70;102131.16;5084302;27;45434;-61
2022/01/15 03:18:28;;;;;;;;;81.25;61.75;;;;;2.18;68.98;102126.88;5119494;27;47059;-60
2022/01/15 03:20:54;;;;;;;;;90.25;64.75;;;;;2.19;69.13;102118.19;5101404;27;45428;-61
2022/01/15 03:23:19;;;;;;;;;82.50;61.25;;;;;2.19;69.23;102123.38;5101415;27;45444;-61
2022/01/15 03:25:44;;;;;;;;;81.75;63.50;;;;;2.18;68.89;102110.47;5100327;27;65235;-60
2022/01/15 03:28:10;;;;;;;;;81.75;61.25;;;;;2.16;69.03;102115.69;5119339;27;45608;-61
2022/01/15 03:30:35;;;;;;;;;93.25;67.25;;;;;2.14;69.06;102109.69;5118437;27;68254;-61
2022/01/15 03:33:01;;;;;;;;;84.50;65.00;;;;;2.13;69.24;102105.41;5084084;27;45337;-62
2022/01/15 03:35:26;;;;;;;;;80.75;64.50;;;;;2.13;69.04;102104.56;5119087;27;54970;-61
2022/01/15 03:37:52;;;;;;;;;83.25;63.50;;;;;2.11;69.01;102093.38;5119341;27;45365;-61
2022/01/15 03:40:17;;;;;;;;;83.25;62.00;;;;;2.13;68.78;102101.97;5118469;27;69079;-59
2022/01/15 03:42:46;;;;;;;;;89.25;65.00;;;;;2.14;68.69;102096.72;5119468;27;45429;-60
2022/01/15 03:45:12;;;;;;;;;93.75;67.00;;;;;2.16;69.07;102094.13;5119366;27;45540;-60
2022/01/15 03:47:37;;;;;;;;;89.25;66.50;;;;;2.16;68.84;102081.97;5100595;27;52872;-61
2022/01/15 03:50:03;;;;;;;;;95.50;71.50;;;;;2.14;68.97;102083.75;5119062;27;45333;-61
2022/01/15 03:52:28;;;;;;;;;91.75;67.50;;;;;2.13;69.04;102082.06;5119142;27;45428;-62
2022/01/15 03:54:54;;;;;;;;;93.00;70.25;;;;;2.13;69.04;102079.47;5118316;27;66009;-60
2022/01/15 03:57:19;;;;;;;;;92.50;69.00;;;;;2.14;68.95;102081.16;5119051;27;46625;-61
2022/01/15 03:59:44;;;;;;;;;93.50;67.75;;;;;2.14;68.66;102077.75;5118300;27;65132;-61
2022/01/15 04:02:10;;;;;;;;;89.75;67.75;;;;;2.12;68.53;102074.34;5118264;27;67037;-61
2022/01/15 04:04:35;;;;;;;;;93.50;67.25;;;;;2.12;68.55;102080.38;5118405;27;57559;-60
2022/01/15 04:07:01;;;;;;;;;91.25;67.75;;;;;2.13;68.50;102076.88;5117829;27;70092;-59
2022/01/15 04:09:26;;;;;;;;;94.00;68.75;;;;;2.14;68.40;102075.97;5118585;27;45436;-62
2022/01/15 04:11:51;;;;;;;;;92.25;69.75;;;;;2.14;68.71;102078.56;5118273;27;58156;-61
2022/01/15 04:14:17;;;;;;;;;90.00;67.25;;;;;2.14;68.47;102072.56;5118629;27;45674;-61
2022/01/15 04:16:42;;;;;;;;;91.50;67.25;;;;;2.13;68.24;102073.44;5118507;27;46593;-61
2022/01/15 04:19:08;;;;;;;;;91.00;67.50;;;;;2.13;68.38;102071.69;5118376;27;45460;-60
2022/01/15 04:21:34;;;;;;;;;96.50;70.25;;;;;2.14;68.01;102072.56;5081745;27;45351;-59
2022/01/15 04:23:59;;;;;;;;;99.50;70.75;;;;;2.14;68.51;102067.38;5118643;27;45250;-61
2022/01/15 04:26:26;;;;;;;;;87.50;66.50;;;;;2.12;68.35;102062.22;5118548;27;46560;-61
2022/01/15 04:28:52;;;;;;;;;92.75;68.75;;;;;2.11;68.44;102057.94;5118439;27;45517;-60
2022/01/15 04:31:18;;;;;;;;;92.50;67.00;;;;;2.08;68.22;102052.84;5118513;27;45268;-61
2022/01/15 04:33:43;;;;;;;;;92.00;69.00;;;;;2.04;68.00;102054.66;5100192;27;45671;-61
2022/01/15 04:36:09;;;;;;;;;91.25;70.25;;;;;2.01;68.35;102052.16;5117817;27;61489;-60
2022/01/15 04:38:37;;;;;;;;;94.75;67.75;;;;;2.02;68.55;102058.19;5118344;27;45279;-62
2022/01/15 04:41:03;;;;;;;;;91.25;66.00;;;;;2.03;68.55;102044.34;5099943;27;45323;-61
2022/01/15 04:43:28;;;;;;;;;91.50;66.50;;;;;2.00;68.26;102047.84;5118414;27;45226;-59
2022/01/15 04:45:53;;;;;;;;;90.75;66.00;;;;;1.99;68.35;102047.91;5099780;27;46093;-62
2022/01/15 04:48:19;;;;;;;;;95.00;70.25;;;;;1.98;68.70;102046.22;5099160;27;58466;-61
2022/01/15 04:50:44;;;;;;;;;93.00;72.25;;;;;1.97;68.42;102044.50;5099238;27;52729;-60
2022/01/15 04:53:09;;;;;;;;;92.00;67.25;;;;;1.97;68.46;102032.38;5117646;27;58904;-62
2022/01/15 04:55:36;;;;;;;;;92.25;66.75;;;;;1.98;68.82;102035.84;5098997;27;61472;-60
2022/01/15 04:58:01;;;;;;;;;96.75;70.50;;;;;1.97;68.72;102034.16;5099549;27;45455;-61
2022/01/15 05:00:27;;;;;;;;;95.25;70.00;;;;;1.96;68.47;102038.47;5118107;27;45393;-61
2022/01/15 05:02:52;;;;;;;;;94.00;70.75;;;;;1.92;68.56;102035.13;5117238;27;65605;-60
2022/01/15 05:05:17;;;;;;;;;90.50;67.25;;;;;1.90;68.57;102033.44;5117811;27;45449;-61
2022/01/15 05:07:43;;;;;;;;;89.50;68.00;;;;;1.90;68.82;102031.72;5117287;27;65014;-62
2022/01/15 05:10:09;;;;;;;;;87.50;66.75;;;;;1.90;68.71;102028.25;5118166;27;45471;-61
2022/01/15 05:12:46;;;;;;;;;97.75;72.75;;;;;1.91;68.62;102027.38;5099590;27;45648;-61
2022/01/15 05:15:12;;;;;;;;;94.75;70.50;;;;;1.95;69.39;102022.97;5117992;27;45336;-62
2022/01/15 05:17:38;;;;;;;;;95.75;69.50;;;;;1.98;69.41;102025.47;5099451;27;45398;-60
2022/01/15 05:20:03;;;;;;;;;97.00;75.75;;;;;2.00;69.18;102028.88;5099624;27;45406;-60
2022/01/15 05:22:29;;;;;;;;;87.00;60.25;;;;;2.01;69.10;102020.22;5117601;27;45365;-61
2022/01/15 05:24:54;;;;;;;;;98.25;70.50;;;;;2.01;69.31;102023.63;5099347;27;46089;-60
2022/01/15 05:27:20;;;;;;;;;107.75;82.00;;;;;2.01;69.20;102023.63;5116854;27;68935;-62
2022/01/15 05:29:45;;;;;;;;;97.50;74.25;;;;;1.99;69.40;102025.41;5116555;27;66799;-60
2022/01/15 05:32:11;;;;;;;;;95.00;74.00;;;;;1.99;69.49;102027.19;5116461;27;63620;-59
2022/01/15 05:34:36;;;;;;;;;92.75;68.00;;;;;1.99;69.65;102022.81;5117531;27;46638;-61
2022/01/15 05:37:02;;;;;;;;;98.00;72.25;;;;;1.98;69.99;102030.66;5117651;27;45361;-62
2022/01/15 05:39:27;;;;;;;;;95.75;72.25;;;;;1.97;69.87;102026.38;5117822;27;45388;-61
2022/01/15 05:41:53;;;;;;;;;108.50;79.50;;;;;1.96;70.20;102030.69;5099109;27;45394;-62
2022/01/15 05:44:19;;;;;;;;;102.25;78.50;;;;;1.95;70.26;102035.94;5081843;27;47155;-63
2022/01/15 05:46:45;;;;;;;;;95.00;69.50;;;;;1.91;70.40;102030.84;5098476;27;45350;-60
2022/01/15 05:49:10;;;;;;;;;92.75;68.75;;;;;1.90;70.51;102028.25;5117645;27;45372;-60
2022/01/15 05:51:35;;;;;;;;;96.25;74.25;;;;;1.90;70.72;102033.44;5117505;27;45412;-61
2022/01/15 05:54:01;;;;;;;;;96.25;74.50;;;;;1.88;70.68;102020.53;5116404;27;67334;-62
2022/01/15 05:56:27;;;;;;;;;100.00;74.25;;;;;1.89;70.70;102027.44;5098962;27;45291;-62
2022/01/15 05:58:52;;;;;;;;;96.00;69.50;;;;;1.89;70.63;102023.97;5116662;27;63643;-60
2022/01/15 06:01:18;;;;;;;;;97.50;73.25;;;;;1.88;70.80;102028.31;5116552;27;64980;-60
2022/01/15 06:03:43;;;;;;;;;97.50;68.25;;;;;1.84;70.48;102024.13;5098646;27;46093;-60
2022/01/15 06:06:09;;;;;;;;;99.00;69.75;;;;;1.85;70.51;102024.97;5116183;27;67936;-61
2022/01/15 06:08:34;;;;;;;;;97.00;69.75;;;;;1.83;70.36;102032.78;5116550;27;60514;-61
2022/01/15 06:10:59;;;;;;;;;99.00;73.00;;;;;1.82;70.11;102028.50;5116349;27;64431;-61
2022/01/15 06:13:25;;;;;;;;;93.50;73.50;;;;;1.82;70.14;102030.25;5117136;27;45416;-61
2022/01/15 06:15:50;;;;;;;;;89.75;67.75;;;;;1.81;70.11;102024.19;5117167;27;45330;-60
2022/01/15 06:18:15;;;;;;;;;93.25;67.00;;;;;1.81;69.89;102023.38;5116489;27;63876;-61
2022/01/15 06:20:41;;;;;;;;;98.50;71.00;;;;;1.76;69.86;102020.88;5116321;27;60300;-62
2022/01/15 06:23:06;;;;;;;;;94.75;70.25;;;;;1.77;69.77;102030.34;5115901;27;73682;-60
2022/01/15 06:25:31;;;;;;;;;97.50;65.50;;;;;1.74;69.66;102020.94;5115941;27;69106;-61
2022/01/15 06:27:57;;;;;;;;;94.50;70.75;;;;;1.73;69.83;102026.16;5116093;27;64987;-62
2022/01/15 06:30:22;;;;;;;;;100.25;74.75;;;;;1.73;69.48;102031.31;5097347;27;70058;-60
2022/01/15 06:32:48;;;;;;;;;93.00;70.25;;;;;1.71;69.65;102035.69;5116718;27;46120;-60
2022/01/15 06:35:13;;;;;;;;;90.50;68.00;;;;;1.69;69.56;102025.38;5116687;27;45430;-61
2022/01/15 06:37:39;;;;;;;;;90.75;67.50;;;;;1.68;69.88;102033.19;5098534;27;45458;-62
2022/01/15 06:40:05;;;;;;;;;98.00;68.50;;;;;1.67;69.56;102018.53;5116664;27;45400;-62
2022/01/15 06:42:31;;;;;;;;;89.00;65.75;;;;;1.66;69.73;102024.59;5098288;27;46889;-61
2022/01/15 06:44:56;;;;;;;;;86.50;67.00;;;;;1.68;69.72;102025.41;5100818;27;53280;-59
2022/01/15 06:47:21;;;;;;;;;91.50;67.00;;;;;1.67;69.84;102021.13;5120375;27;45786;-59
2022/01/15 06:49:47;;;;;;;;;88.25;68.50;;;;;1.66;69.77;102019.44;5101719;27;45312;-61
2022/01/15 06:52:12;;;;;;;;;88.75;67.25;;;;;1.67;69.56;102015.94;5101666;27;45560;-64
2022/01/15 06:54:38;;;;;;;;;88.75;65.00;;;;;1.67;69.30;102016.81;5101580;27;45238;-62
2022/01/15 06:57:03;;;;;;;;;90.25;66.00;;;;;1.67;69.44;102016.81;5119096;27;67803;-61
2022/01/15 06:59:28;;;;;;;;;87.00;65.25;;;;;1.69;69.41;102011.56;5119921;27;45369;-61
2022/01/15 07:01:54;;;;;;;;;90.00;65.50;;;;;1.69;69.41;102006.38;5119152;27;64411;-62
2022/01/15 07:04:19;;;;;;;;;84.25;63.25;;;;;1.69;69.60;101998.63;5118985;27;68334;-61
2022/01/15 07:06:45;;;;;;;;;86.00;62.50;;;;;1.68;69.50;102000.38;5119874;27;45248;-61
2022/01/15 07:09:10;;;;;;;;;77.75;57.50;;;;;1.68;70.11;101996.91;5118722;27;64905;-62
2022/01/15 07:11:35;;;;;;;;;83.25;62.50;;;;;1.65;69.89;101992.69;5118634;27;72991;-60
2022/01/15 07:14:01;;;;;;;;;77.25;58.50;;;;;1.65;70.04;101990.09;5101044;27;45197;-61
2022/01/15 07:16:26;;;;;;;;;84.50;62.75;;;;;1.66;69.95;101990.91;5118958;27;58904;-63
2022/01/15 07:18:51;;;;;;;;;90.50;68.50;;;;;1.64;69.45;101990.97;5118942;27;66024;-62
2022/01/15 07:21:17;;;;;;;;;92.75;69.50;;;;;1.60;69.62;101992.78;5119235;27;53951;-60
2022/01/15 07:23:42;;;;;;;;;91.25;67.75;;;;;1.60;69.49;101990.19;5119698;27;45378;-62
2022/01/15 07:26:08;;;;;;;;;101.50;83.00;;;;;1.57;69.28;101985.13;5119312;27;55577;-61
2022/01/15 07:28:35;;;;;;;;;98.25;73.25;;;;;1.54;69.20;101980.03;5080442;27;45407;-60
2022/01/15 07:31:00;;;;;;;;;94.00;69.75;;;;;1.53;69.06;101986.09;5098991;27;45654;-61
2022/01/15 07:33:25;;;;;;;;;87.75;66.25;;;;;1.53;69.44;101980.06;5097804;27;45481;-59
2022/01/15 07:35:51;;;;;;;;;85.50;62.00;;;;;1.54;69.76;101979.16;5097040;27;66439;-62
2022/01/15 07:38:17;;;;;;;;;86.00;65.50;;;;;1.55;69.59;101986.91;5096661;27;70180;-60
2022/01/15 07:40:43;;;;;;;;;91.00;64.00;;;;;1.55;69.89;101981.72;5098635;27;45424;-61
2022/01/15 07:43:08;;;;;;;;;88.50;67.00;;;;;1.56;69.62;101988.63;5097377;27;45356;-61
2022/01/15 07:45:34;;;;;;;;;85.50;62.25;;;;;1.56;69.52;101983.44;5097466;27;45205;-60
2022/01/15 07:47:59;;;;;;;;;91.00;66.50;;;;;1.54;69.17;101985.22;5097975;27;58777;-60
2022/01/15 07:50:25;;;;;;;;;90.25;67.25;;;;;1.54;68.87;101987.81;5097460;27;67368;-61
2022/01/15 07:52:54;;;;;;;;;100.75;75.50;;;;;1.56;69.02;101993.78;5096307;27;67273;-60
2022/01/15 07:55:19;;;;;;;;;100.75;75.75;;;;;1.56;68.91;101993.78;5097275;27;45310;-61
2022/01/15 07:57:45;;;;;;;;;96.00;69.50;;;;;1.56;68.87;101988.63;5098668;27;45243;-61
2022/01/15 08:00:14;;;;;;;;;97.50;73.25;;;;;1.55;68.89;101986.03;5098404;27;45335;-60
2022/01/15 08:02:39;;;;;;;;;101.50;80.50;;;;;1.56;69.10;101993.78;5097140;27;45296;-61
2022/01/15 08:05:05;;;;;;;;;103.25;77.50;;;;;1.58;69.08;101989.41;5098563;27;45412;-60
2022/01/15 08:07:31;;;;;;;;;120.00;89.50;;;;;1.57;69.09;101987.72;5098282;27;45529;-60
2022/01/15 08:09:56;;;;;;;;;99.75;82.75;;;;;1.56;69.24;101983.44;5098024;27;46344;-61
2022/01/15 08:12:22;;;;;;;;;95.25;70.75;;;;;1.56;69.43;101987.75;5097071;27;72032;-60
2022/01/15 08:14:49;;;;;;;;;100.75;78.00;;;;;1.56;69.56;101987.75;5097941;27;45369;-62
2022/01/15 08:17:15;;;;;;;;;101.00;82.25;;;;;1.57;69.30;101985.13;5097832;27;45474;-62
2022/01/15 08:19:40;;;;;;;;;216.00;167.75;;;;;1.57;69.76;101985.13;5098102;27;45413;-61
2022/01/15 08:22:06;;;;;;;;;195.75;151.00;;;;;1.59;70.26;101980.72;5096741;27;45252;-61
2022/01/15 08:24:31;;;;;;;;;135.00;108.25;;;;;1.61;70.28;101976.34;5097745;27;48340;-61
2022/01/15 08:26:56;;;;;;;;;151.00;115.00;;;;;1.64;70.41;101980.63;5097117;27;69685;-61
2022/01/15 08:29:22;;;;;;;;;203.00;169.00;;;;;1.67;70.68;101977.94;5109414;27;62978;-60
2022/01/15 08:31:47;;;;;;;;;195.33;148.33;;;;;1.69;70.93;101975.28;5117660;27;63783;-61
2022/01/15 08:34:12;;;;;;;;;185.67;150.67;;;;;1.70;70.90;101969.22;5099362;27;61339;-60
2022/01/15 08:36:38;;;;;;;;;152.00;120.00;;;;;1.73;71.04;101971.72;5117765;27;55286;-61
2022/01/15 08:39:08;;;;;;;;;120.33;97.00;;;;;1.74;70.67;101976.00;5117693;27;61923;-60
2022/01/15 08:41:33;;;;;;;;;115.00;91.50;;;;;1.73;70.75;101970.00;5118433;27;45314;-60
2022/01/15 08:43:58;;;;;;;;;116.00;92.00;;;;;1.76;70.87;101974.22;5117403;27;68188;-62
2022/01/15 08:46:24;;;;;;;;;108.25;88.00;;;;;1.78;70.74;101977.63;5118448;27;45404;-61
2022/01/15 08:48:49;;;;;;;;;118.50;90.25;;;;;1.81;70.86;101971.53;5099923;27;45496;-61
2022/01/15 08:51:15;;;;;;;;;105.75;89.25;;;;;1.84;71.01;101977.47;5118117;27;45410;-60
2022/01/15 08:53:40;;;;;;;;;111.75;88.25;;;;;1.89;70.90;101974.72;5117478;27;61110;-61
2022/01/15 08:56:06;;;;;;;;;113.50;91.75;;;;;1.93;71.09;101977.19;5118123;27;45381;-62
2022/01/15 08:58:31;;;;;;;;;99.25;82.50;;;;;1.96;71.00;101975.41;5117954;27;45409;-59
2022/01/15 09:00:57;;;;;;;;;100.00;78.25;;;;;2.00;70.89;101971.84;5118031;27;45404;-61
2022/01/15 09:03:22;;;;;;;;;102.00;84.00;;;;;2.03;70.90;101971.75;5099829;27;45269;-61
2022/01/15 09:05:50;;;;;;;;;103.75;86.00;;;;;2.04;70.97;101969.09;5098953;27;45244;-61
2022/01/15 09:08:15;;;;;;;;;105.00;85.25;;;;;2.07;70.89;101978.56;5099616;27;45352;-61
2022/01/15 09:10:42;;;;;;;;;102.25;83.00;;;;;2.09;70.85;101984.53;5099272;27;45437;-59
2022/01/15 09:13:10;;;;;;;;;108.50;88.50;;;;;2.12;70.70;101981.00;5117075;27;45355;-61
2022/01/15 09:15:35;;;;;;;;;104.75;89.00;;;;;2.14;70.89;101985.22;5117159;27;45373;-61
2022/01/15 09:18:01;;;;;;;;;106.50;88.25;;;;;2.17;70.96;101979.13;5117733;27;45281;-60
2022/01/15 09:20:26;;;;;;;;;110.00;90.50;;;;;2.20;70.86;101979.03;5117838;27;45295;-63
2022/01/15 09:22:52;;;;;;;;;92.50;65.25;;;;;2.23;70.84;101990.16;5099590;27;45263;-61
2022/01/15 09:25:17;;;;;;;;;109.50;86.00;;;;;2.26;70.93;101985.75;5117864;27;45223;-60
2022/01/15 09:30:26;;;;;;;;;112.75;88.50;;;;;2.35;71.00;101990.69;5117782;27;45395;-61
2022/01/15 09:32:53;;;;;;;;;100.50;79.50;;;;;2.39;70.80;101997.47;5099135;27;45273;-62
2022/01/15 09:35:27;;;;;;;;;99.50;75.25;;;;;2.44;71.03;101998.19;5117729;27;45485;-62
2022/01/15 09:37:53;;;;;;;;;92.75;71.50;;;;;2.49;71.21;102004.09;5099419;27;46202;-64
2022/01/15 09:40:19;;;;;;;;;102.75;83.00;;;;;2.58;70.97;102010.72;5117589;27;45311;-62
2022/01/15 09:42:44;;;;;;;;;99.00;76.25;;;;;2.73;71.04;102004.19;5099370;27;45281;-63
2022/01/15 09:45:10;;;;;;;;;96.00;75.25;;;;;2.89;71.18;101998.50;5117359;27;45307;-61
2022/01/15 09:47:36;;;;;;;;;112.25;84.25;;;;;3.08;70.72;102002.22;5098648;27;47450;-64
2022/01/15 09:50:03;;;;;;;;;103.75;86.75;;;;;3.27;70.94;101998.97;5098637;27;54162;-64
2022/01/15 09:52:30;;;;;;;;;107.50;87.75;;;;;3.47;70.52;101994.84;5117091;27;45329;-62
2022/01/15 09:54:55;;;;;;;;;106.75;86.75;;;;;3.67;70.00;102000.19;5099084;27;45442;-62
2022/01/15 09:57:21;;;;;;;;;109.33;81.00;;;;;3.87;69.81;101993.41;5097461;27;70032;-62
2022/01/15 09:59:46;;;;;;;;;98.75;79.50;;;;;4.08;69.46;101998.72;5117128;27;45499;-61
2022/01/15 10:02:11;;;;;;;;;95.00;79.67;;;;;4.27;69.14;101996.28;5116388;27;66077;-60
2022/01/15 10:04:37;;;;;;;;;98.50;81.50;;;;;4.45;68.88;101995.56;5098744;27;45552;-63
2022/01/15 10:07:12;;;;;;;;;96.50;75.25;;;;;4.68;68.59;102000.78;5080990;27;68294;-61
2022/01/15 10:09:38;;;;;;;;;97.00;75.00;;;;;4.89;68.32;101989.47;5099103;27;45269;-63
2022/01/15 10:12:04;;;;;;;;;98.25;79.25;;;;;5.13;67.84;101994.59;5098860;27;45285;-62
2022/01/15 10:14:34;;;;;;;;;96.50;79.75;;;;;5.37;67.37;101989.22;5117240;27;45488;-63
2022/01/15 10:17:05;;;;;;;;;97.75;79.00;;;;;5.61;67.08;101989.91;5116674;27;45516;-63
2022/01/15 10:19:31;;;;;;;;;116.25;97.75;;;;;5.85;66.22;101983.66;5101509;27;45485;-63
2022/01/15 10:22:11;;;;;;;;;127.25;99.00;;;;;6.10;66.15;101978.19;5102306;27;45396;-63
2022/01/15 10:24:38;;;;;;;;;116.75;101.50;;;;;6.32;65.65;101967.63;5102031;27;45562;-63
2022/01/15 10:27:34;;;;;;;;;115.75;95.50;;;;;6.54;65.13;101969.19;5120556;27;45349;-62
2022/01/15 10:30:08;;;;;;;;;108.00;96.75;;;;;6.78;64.76;101966.31;5104648;27;45251;-61
2022/01/15 10:32:38;;;;;;;;;107.25;92.75;;;;;6.98;64.19;101966.13;5120695;27;45465;-63
2022/01/15 10:35:14;;;;;;;;;118.25;95.75;;;;;7.19;63.80;101970.34;5102059;27;45430;-60
2022/01/15 10:37:50;;;;;;;;;114.50;92.75;;;;;7.36;63.34;101969.50;5120354;27;47568;-59
2022/01/15 10:40:16;;;;;;;;;111.25;93.50;;;;;7.56;62.98;101969.28;5120426;27;45333;-61
2022/01/15 10:42:42;;;;;;;;;123.25;111.25;;;;;7.72;62.57;101968.47;5085070;27;45297;-61
2022/01/15 10:45:14;;;;;;;;;120.00;102.75;;;;;7.91;61.92;101962.25;5120410;27;45253;-61
2022/01/15 10:47:48;;;;;;;;;121.00;105.00;;;;;8.08;61.74;101956.94;5120095;27;46099;-61
2022/01/15 10:50:22;;;;;;;;;110.25;98.25;;;;;8.25;61.27;101949.91;5120065;27;45376;-62
2022/01/15 10:52:48;;;;;;;;;112.25;96.00;;;;;8.40;60.81;101940.34;5120322;27;45410;-59
2022/01/15 10:55:15;;;;;;;;;120.50;103.75;;;;;8.52;60.54;101939.69;5120301;27;45364;-62
2022/01/15 10:57:46;;;;;;;;;128.25;103.00;;;;;8.58;59.97;101939.34;5101684;27;45339;-60
2022/01/15 11:00:14;;;;;;;;;113.75;100.25;;;;;8.63;59.56;101944.31;5084456;27;45219;-63
2022/01/15 11:02:40;;;;;;;;;110.00;94.50;;;;;8.65;59.79;101939.81;5084790;27;45337;-62
2022/01/15 11:05:28;;;;;;;;;114.00;99.50;;;;;8.65;59.43;101939.81;5101436;27;45321;-62
2022/01/15 11:08:02;;;;;;;;;109.25;98.25;;;;;8.65;59.34;101944.22;5101830;27;46306;-61
2022/01/15 11:10:27;;;;;;;;;112.00;98.00;;;;;8.57;59.55;101935.03;5102307;27;45328;-61
2022/01/15 11:12:53;;;;;;;;;110.67;94.33;;;;;8.52;59.15;101930.97;5100401;27;66091;-62
2022/01/15 11:15:18;;;;;;;;;104.75;89.25;;;;;8.48;59.29;101938.16;5101191;27;45613;-59
2022/01/15 11:17:44;;;;;;;;;103.00;88.50;;;;;8.44;59.15;101931.38;5118621;27;68763;-61
2022/01/15 11:20:10;;;;;;;;;109.00;88.75;;;;;8.42;58.78;101928.88;5083729;27;55525;-62
2022/01/15 11:22:35;;;;;;;;;101.50;91.75;;;;;8.38;58.94;101924.75;5101340;27;45218;-61
2022/01/15 11:25:01;;;;;;;;;111.67;92.67;;;;;8.35;59.04;101924.06;5100041;27;69426;-61
2022/01/15 11:27:27;;;;;;;;;107.00;91.50;;;;;8.31;59.23;101926.00;5083054;27;67509;-65
2022/01/15 11:29:54;;;;;;;;;104.00;89.75;;;;;8.30;58.87;101919.91;5100277;27;45426;-64
2022/01/15 11:32:20;;;;;;;;;101.50;88.25;;;;;8.28;59.35;101918.34;5067669;27;45441;-62
2022/01/15 11:35:06;;;;;;;;;111.25;92.00;;;;;8.27;59.47;101898.31;5118993;27;45386;-60
2022/01/15 11:37:49;;;;;;;;;109.25;97.25;;;;;8.27;59.59;101899.13;5118600;27;45535;-63
2022/01/15 11:40:34;;;;;;;;;86.00;63.50;;;;;8.28;59.66;101897.38;5084446;27;45692;-63